sensor_id;sensor_type;location;lat;lon;timestamp;pressure;altitude;pressure_sealevel;temperature;humidity
78857;BME280;68207;50.078;19.936;2023-05-20T00:01:46;99962.92;;;11.81;77.98
78857;BME280;68207;50.078;19.936;2023-05-20T00:04:11;99958.52;;;11.81;77.97
78857;BME280;68207;50.078;19.936;2023-05-20T00:06:37;99953.75;;;11.81;77.85
78857;BME280;68207;50.078;19.936;2023-05-20T00:09:02;99949.40;;;11.80;77.85
78857;BME280;68207;50.078;19.936;2023-05-20T00:11:28;99943.23;;;11.83;77.88
78857;BME280;68207;50.078;19.936;2023-05-20T00:13:53;99943.10;;;11.88;77.89
78857;BME280;68207;50.078;19.936;2023-05-20T00:16:18;99945.05;;;11.92;77.80
78857;BME280;68207;50.078;19.936;2023-05-20T00:18:44;99952.67;;;11.94;77.91
78857;BME280;68207;50.078;19.936;2023-05-20T00:21:09;99950.52;;;11.94;77.74
78857;BME280;68207;50.078;19.936;2023-05-20T00:23:34;99950.82;;;11.95;77.72
78857;BME280;68207;50.078;19.936;2023-05-20T00:26:00;99949.61;;;11.98;77.79
78857;BME280;68207;50.078;19.936;2023-05-20T00:28:25;99947.60;;;12.00;77.71
78857;BME280;68207;50.078;19.936;2023-05-20T00:30:50;99950.02;;;12.02;77.70
78857;BME280;68207;50.078;19.936;2023-05-20T00:33:15;99950.18;;;12.04;77.86
78857;BME280;68207;50.078;19.936;2023-05-20T00:35:40;99948.86;;;12.05;77.97
78857;BME280;68207;50.078;19.936;2023-05-20T00:38:06;99951.73;;;12.04;77.72
78857;BME280;68207;50.078;19.936;2023-05-20T00:40:31;99952.61;;;12.06;77.66
78857;BME280;68207;50.078;19.936;2023-05-20T00:42:56;99943.39;;;12.08;77.67
78857;BME280;68207;50.078;19.936;2023-05-20T00:45:21;99943.70;;;12.08;77.77
78857;BME280;68207;50.078;19.936;2023-05-20T00:47:47;99938.72;;;12.09;77.77
78857;BME280;68207;50.078;19.936;2023-05-20T00:50:12;99935.46;;;12.09;77.81
78857;BME280;68207;50.078;19.936;2023-05-20T00:52:38;99933.41;;;12.07;77.76
78857;BME280;68207;50.078;19.936;2023-05-20T00:55:03;99934.69;;;12.08;77.78
78857;BME280;68207;50.078;19.936;2023-05-20T00:57:29;99936.42;;;12.09;77.79
78857;BME280;68207;50.078;19.936;2023-05-20T00:59:54;99936.36;;;12.09;77.86
78857;BME280;68207;50.078;19.936;2023-05-20T01:02:20;99932.58;;;12.10;77.82
78857;BME280;68207;50.078;19.936;2023-05-20T01:04:46;99933.84;;;12.09;78.01
78857;BME280;68207;50.078;19.936;2023-05-20T01:07:14;99932.38;;;12.08;77.95
78857;BME280;68207;50.078;19.936;2023-05-20T01:09:40;99927.80;;;12.10;78.07
78857;BME280;68207;50.078;19.936;2023-05-20T01:12:12;99924.04;;;12.10;78.00
78857;BME280;68207;50.078;19.936;2023-05-20T01:14:48;99921.58;;;12.08;78.21
78857;BME280;68207;50.078;19.936;2023-05-20T01:17:15;99919.63;;;12.06;78.20
78857;BME280;68207;50.078;19.936;2023-05-20T01:19:45;99918.94;;;12.05;78.27
78857;BME280;68207;50.078;19.936;2023-05-20T01:22:12;99922.83;;;12.03;78.41
78857;BME280;68207;50.078;19.936;2023-05-20T01:24:40;99916.99;;;12.01;78.44
78857;BME280;68207;50.078;19.936;2023-05-20T01:27:07;99916.50;;;12.01;78.49
78857;BME280;68207;50.078;19.936;2023-05-20T01:29:35;99914.80;;;12.00;78.53
78857;BME280;68207;50.078;19.936;2023-05-20T01:32:04;99913.30;;;11.97;78.63
78857;BME280;68207;50.078;19.936;2023-05-20T01:34:31;99916.75;;;11.95;78.71
78857;BME280;68207;50.078;19.936;2023-05-20T01:36:56;99914.20;;;11.92;78.76
78857;BME280;68207;50.078;19.936;2023-05-20T01:39:23;99910.31;;;11.92;78.96
78857;BME280;68207;50.078;19.936;2023-05-20T01:41:49;99906.08;;;11.94;78.93
78857;BME280;68207;50.078;19.936;2023-05-20T01:44:15;99907.59;;;11.93;78.89
78857;BME280;68207;50.078;19.936;2023-05-20T01:46:40;99903.98;;;11.92;79.07
78857;BME280;68207;50.078;19.936;2023-05-20T01:49:05;99905.03;;;11.90;79.13
78857;BME280;68207;50.078;19.936;2023-05-20T01:51:30;99908.42;;;11.88;79.28
78857;BME280;68207;50.078;19.936;2023-05-20T01:53:57;99907.93;;;11.87;79.26
78857;BME280;68207;50.078;19.936;2023-05-20T01:56:23;99907.55;;;11.90;79.39
78857;BME280;68207;50.078;19.936;2023-05-20T01:58:48;99904.56;;;11.89;79.28
78857;BME280;68207;50.078;19.936;2023-05-20T02:01:13;99905.25;;;11.90;79.43
78857;BME280;68207;50.078;19.936;2023-05-20T02:03:38;99909.73;;;11.89;79.47
78857;BME280;68207;50.078;19.936;2023-05-20T02:06:04;99911.08;;;11.88;79.57
78857;BME280;68207;50.078;19.936;2023-05-20T02:08:29;99906.88;;;11.89;79.53
78857;BME280;68207;50.078;19.936;2023-05-20T02:10:54;99911.41;;;11.90;79.57
78857;BME280;68207;50.078;19.936;2023-05-20T02:13:19;99909.54;;;11.89;79.62
78857;BME280;68207;50.078;19.936;2023-05-20T02:15:45;99906.83;;;11.90;79.57
78857;BME280;68207;50.078;19.936;2023-05-20T02:18:10;99915.11;;;11.90;79.64
78857;BME280;68207;50.078;19.936;2023-05-20T02:20:36;99916.50;;;11.89;79.63
78857;BME280;68207;50.078;19.936;2023-05-20T02:23:02;99918.09;;;11.91;79.76
78857;BME280;68207;50.078;19.936;2023-05-20T02:25:30;99920.90;;;11.92;79.77
78857;BME280;68207;50.078;19.936;2023-05-20T02:27:55;99922.04;;;11.94;79.74
78857;BME280;68207;50.078;19.936;2023-05-20T02:30:20;99921.12;;;11.94;79.78
78857;BME280;68207;50.078;19.936;2023-05-20T02:32:46;99917.35;;;11.93;79.78
78857;BME280;68207;50.078;19.936;2023-05-20T02:35:11;99916.46;;;11.91;79.83
78857;BME280;68207;50.078;19.936;2023-05-20T02:37:36;99914.83;;;11.91;79.72
78857;BME280;68207;50.078;19.936;2023-05-20T02:40:03;99912.17;;;11.92;79.91
78857;BME280;68207;50.078;19.936;2023-05-20T02:42:29;99912.02;;;11.91;79.90
78857;BME280;68207;50.078;19.936;2023-05-20T02:44:54;99913.04;;;11.91;79.99
78857;BME280;68207;50.078;19.936;2023-05-20T02:47:22;99914.32;;;11.93;79.86
78857;BME280;68207;50.078;19.936;2023-05-20T02:49:48;99918.61;;;11.96;79.76
78857;BME280;68207;50.078;19.936;2023-05-20T02:52:13;99915.47;;;11.99;79.81
78857;BME280;68207;50.078;19.936;2023-05-20T02:54:40;99918.09;;;11.99;79.89
78857;BME280;68207;50.078;19.936;2023-05-20T02:57:05;99921.83;;;11.99;79.88
78857;BME280;68207;50.078;19.936;2023-05-20T02:59:30;99920.61;;;11.99;79.76
78857;BME280;68207;50.078;19.936;2023-05-20T03:01:55;99918.09;;;11.97;79.97
78857;BME280;68207;50.078;19.936;2023-05-20T03:04:21;99917.09;;;11.99;79.91
78857;BME280;68207;50.078;19.936;2023-05-20T03:06:46;99919.66;;;11.99;79.73
78857;BME280;68207;50.078;19.936;2023-05-20T03:09:11;99922.63;;;12.00;79.94
78857;BME280;68207;50.078;19.936;2023-05-20T03:11:38;99922.23;;;11.98;79.91
78857;BME280;68207;50.078;19.936;2023-05-20T03:14:03;99924.98;;;11.98;79.86
78857;BME280;68207;50.078;19.936;2023-05-20T03:16:28;99930.48;;;11.99;79.88
78857;BME280;68207;50.078;19.936;2023-05-20T03:18:54;99926.94;;;12.01;80.03
78857;BME280;68207;50.078;19.936;2023-05-20T03:21:19;99929.77;;;12.03;80.06
78857;BME280;68207;50.078;19.936;2023-05-20T03:23:47;99933.85;;;12.03;79.97
78857;BME280;68207;50.078;19.936;2023-05-20T03:26:13;99931.73;;;12.03;80.03
78857;BME280;68207;50.078;19.936;2023-05-20T03:28:38;99933.85;;;12.02;80.06
78857;BME280;68207;50.078;19.936;2023-05-20T03:31:03;99935.27;;;12.06;80.00
78857;BME280;68207;50.078;19.936;2023-05-20T03:33:29;99935.59;;;12.08;79.87
78857;BME280;68207;50.078;19.936;2023-05-20T03:35:55;99936.42;;;12.10;80.00
78857;BME280;68207;50.078;19.936;2023-05-20T03:38:20;99927.79;;;12.11;79.82
78857;BME280;68207;50.078;19.936;2023-05-20T03:40:46;99923.34;;;12.11;79.89
78857;BME280;68207;50.078;19.936;2023-05-20T03:43:11;99924.73;;;12.10;80.01
78857;BME280;68207;50.078;19.936;2023-05-20T03:45:36;99927.59;;;12.12;80.04
78857;BME280;68207;50.078;19.936;2023-05-20T03:48:01;99923.63;;;12.14;80.13
78857;BME280;68207;50.078;19.936;2023-05-20T03:50:27;99924.06;;;12.13;80.05
78857;BME280;68207;50.078;19.936;2023-05-20T03:52:52;99925.05;;;12.12;79.91
78857;BME280;68207;50.078;19.936;2023-05-20T03:55:18;99929.55;;;12.11;79.90
78857;BME280;68207;50.078;19.936;2023-05-20T03:57:44;99927.95;;;12.11;79.99
78857;BME280;68207;50.078;19.936;2023-05-20T04:00:10;99925.06;;;12.14;79.93
78857;BME280;68207;50.078;19.936;2023-05-20T04:02:38;99926.95;;;12.16;79.94
78857;BME280;68207;50.078;19.936;2023-05-20T04:05:04;99923.49;;;12.15;79.96
78857;BME280;68207;50.078;19.936;2023-05-20T04:07:29;99927.65;;;12.16;80.04
78857;BME280;68207;50.078;19.936;2023-05-20T04:09:54;99923.34;;;12.17;79.98
78857;BME280;68207;50.078;19.936;2023-05-20T04:12:20;99920.20;;;12.20;80.04
78857;BME280;68207;50.078;19.936;2023-05-20T04:14:45;99921.22;;;12.23;80.06
78857;BME280;68207;50.078;19.936;2023-05-20T04:17:10;99921.96;;;12.26;79.94
78857;BME280;68207;50.078;19.936;2023-05-20T04:19:35;99922.27;;;12.28;79.96
78857;BME280;68207;50.078;19.936;2023-05-20T04:22:03;99924.13;;;12.29;80.05
78857;BME280;68207;50.078;19.936;2023-05-20T04:24:28;99920.57;;;12.29;79.97
78857;BME280;68207;50.078;19.936;2023-05-20T04:26:53;99924.55;;;12.32;80.17
78857;BME280;68207;50.078;19.936;2023-05-20T04:29:19;99922.91;;;12.38;79.99
78857;BME280;68207;50.078;19.936;2023-05-20T04:31:45;99922.59;;;12.41;80.10
78857;BME280;68207;50.078;19.936;2023-05-20T04:34:11;99921.81;;;12.45;79.94
78857;BME280;68207;50.078;19.936;2023-05-20T04:36:36;99924.67;;;12.48;80.07
78857;BME280;68207;50.078;19.936;2023-05-20T04:39:02;99925.61;;;12.47;79.83
78857;BME280;68207;50.078;19.936;2023-05-20T04:41:29;99922.69;;;12.50;79.88
78857;BME280;68207;50.078;19.936;2023-05-20T04:43:55;99916.72;;;12.53;79.75
78857;BME280;68207;50.078;19.936;2023-05-20T04:46:25;99919.57;;;12.56;79.87
78857;BME280;68207;50.078;19.936;2023-05-20T04:48:51;99927.71;;;12.59;79.77
78857;BME280;68207;50.078;19.936;2023-05-20T04:51:16;99927.70;;;12.61;79.79
78857;BME280;68207;50.078;19.936;2023-05-20T04:53:42;99931.07;;;12.62;79.73
78857;BME280;68207;50.078;19.936;2023-05-20T04:56:07;99926.88;;;12.65;79.74
78857;BME280;68207;50.078;19.936;2023-05-20T04:58:32;99930.11;;;12.70;79.69
78857;BME280;68207;50.078;19.936;2023-05-20T05:00:58;99930.65;;;12.73;79.74
78857;BME280;68207;50.078;19.936;2023-05-20T05:03:23;99931.14;;;12.77;79.76
78857;BME280;68207;50.078;19.936;2023-05-20T05:05:48;99930.98;;;12.81;79.71
78857;BME280;68207;50.078;19.936;2023-05-20T05:08:13;99932.41;;;12.84;79.67
78857;BME280;68207;50.078;19.936;2023-05-20T05:10:39;99934.79;;;12.88;79.68
78857;BME280;68207;50.078;19.936;2023-05-20T05:13:04;99939.95;;;12.94;79.63
78857;BME280;68207;50.078;19.936;2023-05-20T05:15:29;99938.59;;;12.97;79.62
78857;BME280;68207;50.078;19.936;2023-05-20T05:17:55;99940.29;;;13.01;79.62
78857;BME280;68207;50.078;19.936;2023-05-20T05:20:20;99935.52;;;13.03;79.66
78857;BME280;68207;50.078;19.936;2023-05-20T05:22:46;99937.98;;;13.04;79.64
78857;BME280;68207;50.078;19.936;2023-05-20T05:25:12;99936.98;;;13.07;79.62
78857;BME280;68207;50.078;19.936;2023-05-20T05:27:37;99940.66;;;13.10;79.57
78857;BME280;68207;50.078;19.936;2023-05-20T05:30:04;99939.66;;;13.14;79.64
78857;BME280;68207;50.078;19.936;2023-05-20T05:32:30;99939.62;;;13.15;79.58
78857;BME280;68207;50.078;19.936;2023-05-20T05:34:55;99941.33;;;13.18;79.64
78857;BME280;68207;50.078;19.936;2023-05-20T05:37:21;99941.20;;;13.21;79.60
78857;BME280;68207;50.078;19.936;2023-05-20T05:39:46;99944.13;;;13.27;79.66
78857;BME280;68207;50.078;19.936;2023-05-20T05:42:12;99942.58;;;13.31;79.71
78857;BME280;68207;50.078;19.936;2023-05-20T05:44:37;99946.54;;;13.35;79.58
78857;BME280;68207;50.078;19.936;2023-05-20T05:47:02;99947.17;;;13.38;79.74
78857;BME280;68207;50.078;19.936;2023-05-20T05:49:28;99943.05;;;13.41;79.76
78857;BME280;68207;50.078;19.936;2023-05-20T05:51:54;99945.15;;;13.45;79.67
78857;BME280;68207;50.078;19.936;2023-05-20T05:54:19;99938.80;;;13.50;79.64
78857;BME280;68207;50.078;19.936;2023-05-20T05:56:45;99940.65;;;13.55;79.55
78857;BME280;68207;50.078;19.936;2023-05-20T05:59:10;99933.02;;;13.58;79.65
78857;BME280;68207;50.078;19.936;2023-05-20T06:01:35;99931.62;;;13.63;79.73
78857;BME280;68207;50.078;19.936;2023-05-20T06:04:01;99929.84;;;13.66;79.68
78857;BME280;68207;50.078;19.936;2023-05-20T06:06:27;99931.24;;;13.71;79.71
78857;BME280;68207;50.078;19.936;2023-05-20T06:08:52;99927.02;;;13.76;79.72
78857;BME280;68207;50.078;19.936;2023-05-20T06:11:17;99931.16;;;13.80;79.73
78857;BME280;68207;50.078;19.936;2023-05-20T06:13:43;99933.14;;;13.83;79.76
78857;BME280;68207;50.078;19.936;2023-05-20T06:16:08;99934.45;;;13.86;79.74
78857;BME280;68207;50.078;19.936;2023-05-20T06:18:33;99935.35;;;13.90;79.71
78857;BME280;68207;50.078;19.936;2023-05-20T06:20:58;99940.45;;;13.96;79.79
78857;BME280;68207;50.078;19.936;2023-05-20T06:23:24;99934.86;;;13.99;79.77
78857;BME280;68207;50.078;19.936;2023-05-20T06:25:50;99931.63;;;14.03;79.70
78857;BME280;68207;50.078;19.936;2023-05-20T06:28:15;99934.97;;;14.03;79.53
78857;BME280;68207;50.078;19.936;2023-05-20T06:30:41;99930.52;;;14.06;79.57
78857;BME280;68207;50.078;19.936;2023-05-20T06:33:06;99932.98;;;14.10;79.44
78857;BME280;68207;50.078;19.936;2023-05-20T06:35:31;99930.03;;;14.12;79.56
78857;BME280;68207;50.078;19.936;2023-05-20T06:38:00;99928.71;;;14.16;79.54
78857;BME280;68207;50.078;19.936;2023-05-20T06:40:26;99925.45;;;14.22;79.47
78857;BME280;68207;50.078;19.936;2023-05-20T06:42:51;99928.20;;;14.27;79.53
78857;BME280;68207;50.078;19.936;2023-05-20T06:45:17;99931.55;;;14.35;79.44
78857;BME280;68207;50.078;19.936;2023-05-20T06:47:42;99930.34;;;14.41;79.23
78857;BME280;68207;50.078;19.936;2023-05-20T06:50:08;99925.55;;;14.45;79.17
78857;BME280;68207;50.078;19.936;2023-05-20T06:52:33;99924.89;;;14.53;79.06
78857;BME280;68207;50.078;19.936;2023-05-20T06:54:58;99920.38;;;14.57;78.99
78857;BME280;68207;50.078;19.936;2023-05-20T06:57:23;99924.55;;;14.62;78.73
78857;BME280;68207;50.078;19.936;2023-05-20T06:59:49;99923.99;;;14.67;78.65
78857;BME280;68207;50.078;19.936;2023-05-20T07:02:14;99920.79;;;14.73;78.71
78857;BME280;68207;50.078;19.936;2023-05-20T07:04:39;99918.19;;;14.79;78.53
78857;BME280;68207;50.078;19.936;2023-05-20T07:07:05;99913.46;;;14.84;78.51
78857;BME280;68207;50.078;19.936;2023-05-20T07:09:31;99909.82;;;14.90;78.54
78857;BME280;68207;50.078;19.936;2023-05-20T07:11:56;99906.02;;;14.95;78.31
78857;BME280;68207;50.078;19.936;2023-05-20T07:14:21;99904.65;;;14.99;78.14
78857;BME280;68207;50.078;19.936;2023-05-20T07:16:46;99904.98;;;15.01;77.87
78857;BME280;68207;50.078;19.936;2023-05-20T07:19:12;99901.98;;;14.99;77.86
78857;BME280;68207;50.078;19.936;2023-05-20T07:21:37;99905.02;;;14.99;77.84
78857;BME280;68207;50.078;19.936;2023-05-20T07:24:03;99901.44;;;14.99;77.82
78857;BME280;68207;50.078;19.936;2023-05-20T07:26:28;99900.52;;;15.02;77.69
78857;BME280;68207;50.078;19.936;2023-05-20T07:28:57;99897.55;;;15.08;77.69
78857;BME280;68207;50.078;19.936;2023-05-20T07:31:22;99894.59;;;15.16;77.83
78857;BME280;68207;50.078;19.936;2023-05-20T07:33:48;99895.28;;;15.26;77.53
78857;BME280;68207;50.078;19.936;2023-05-20T07:36:13;99893.19;;;15.33;77.49
78857;BME280;68207;50.078;19.936;2023-05-20T07:38:38;99892.92;;;15.36;77.22
78857;BME280;68207;50.078;19.936;2023-05-20T07:41:04;99889.85;;;15.45;77.06
78857;BME280;68207;50.078;19.936;2023-05-20T07:43:29;99892.02;;;15.53;76.81
78857;BME280;68207;50.078;19.936;2023-05-20T07:45:54;99890.15;;;15.59;76.60
78857;BME280;68207;50.078;19.936;2023-05-20T07:48:20;99892.31;;;15.63;76.43
78857;BME280;68207;50.078;19.936;2023-05-20T07:50:45;99889.20;;;15.67;76.23
78857;BME280;68207;50.078;19.936;2023-05-20T07:53:10;99891.47;;;15.72;76.11
78857;BME280;68207;50.078;19.936;2023-05-20T07:55:36;99890.58;;;15.75;75.94
78857;BME280;68207;50.078;19.936;2023-05-20T07:58:01;99891.52;;;15.78;75.73
78857;BME280;68207;50.078;19.936;2023-05-20T08:00:27;99891.71;;;15.85;75.81
78857;BME280;68207;50.078;19.936;2023-05-20T08:02:52;99892.73;;;15.89;75.56
78857;BME280;68207;50.078;19.936;2023-05-20T08:05:17;99892.59;;;15.92;75.34
78857;BME280;68207;50.078;19.936;2023-05-20T08:07:43;99891.52;;;15.95;75.38
78857;BME280;68207;50.078;19.936;2023-05-20T08:10:08;99887.25;;;15.98;75.26
78857;BME280;68207;50.078;19.936;2023-05-20T08:12:33;99888.56;;;16.00;75.15
78857;BME280;68207;50.078;19.936;2023-05-20T08:14:59;99887.64;;;16.05;75.10
78857;BME280;68207;50.078;19.936;2023-05-20T08:17:24;99885.73;;;16.09;75.01
78857;BME280;68207;50.078;19.936;2023-05-20T08:19:50;99890.08;;;16.11;74.79
78857;BME280;68207;50.078;19.936;2023-05-20T08:22:15;99884.81;;;16.12;74.87
78857;BME280;68207;50.078;19.936;2023-05-20T08:24:40;99883.06;;;16.19;74.98
78857;BME280;68207;50.078;19.936;2023-05-20T08:27:05;99883.23;;;16.25;74.93
78857;BME280;68207;50.078;19.936;2023-05-20T08:29:31;99880.65;;;16.33;74.90
78857;BME280;68207;50.078;19.936;2023-05-20T08:31:56;99880.00;;;16.40;74.58
78857;BME280;68207;50.078;19.936;2023-05-20T08:34:21;99877.40;;;16.45;74.49
78857;BME280;68207;50.078;19.936;2023-05-20T08:36:46;99874.91;;;16.51;74.33
78857;BME280;68207;50.078;19.936;2023-05-20T08:39:12;99877.36;;;16.55;74.34
78857;BME280;68207;50.078;19.936;2023-05-20T08:41:37;99878.08;;;16.57;74.16
78857;BME280;68207;50.078;19.936;2023-05-20T08:44:04;99874.87;;;16.54;73.97
78857;BME280;68207;50.078;19.936;2023-05-20T08:46:31;99875.84;;;16.56;73.95
78857;BME280;68207;50.078;19.936;2023-05-20T08:48:58;99878.30;;;16.59;73.77
78857;BME280;68207;50.078;19.936;2023-05-20T08:51:26;99876.81;;;16.61;73.76
78857;BME280;68207;50.078;19.936;2023-05-20T08:53:51;99880.96;;;16.62;73.69
78857;BME280;68207;50.078;19.936;2023-05-20T08:56:17;99882.25;;;16.62;73.72
78857;BME280;68207;50.078;19.936;2023-05-20T08:58:43;99877.21;;;16.61;73.72
78857;BME280;68207;50.078;19.936;2023-05-20T09:01:08;99878.50;;;16.59;73.62
78857;BME280;68207;50.078;19.936;2023-05-20T09:03:33;99877.46;;;16.62;73.70
78857;BME280;68207;50.078;19.936;2023-05-20T09:06:06;99873.05;;;16.64;73.73
78857;BME280;68207;50.078;19.936;2023-05-20T09:08:31;99873.84;;;16.65;73.53
78857;BME280;68207;50.078;19.936;2023-05-20T09:10:57;99866.90;;;16.68;73.40
78857;BME280;68207;50.078;19.936;2023-05-20T09:13:23;99865.10;;;16.68;73.28
78857;BME280;68207;50.078;19.936;2023-05-20T09:15:48;99867.93;;;16.68;73.25
78857;BME280;68207;50.078;19.936;2023-05-20T09:18:14;99869.70;;;16.68;73.17
78857;BME280;68207;50.078;19.936;2023-05-20T09:20:39;99876.34;;;16.71;73.15
78857;BME280;68207;50.078;19.936;2023-05-20T09:23:08;99874.61;;;16.75;73.24
78857;BME280;68207;50.078;19.936;2023-05-20T09:25:34;99870.03;;;16.79;72.92
78857;BME280;68207;50.078;19.936;2023-05-20T09:28:03;99873.02;;;16.80;72.99
78857;BME280;68207;50.078;19.936;2023-05-20T09:30:31;99874.64;;;16.85;72.90
78857;BME280;68207;50.078;19.936;2023-05-20T09:32:57;99870.56;;;16.86;72.66
78857;BME280;68207;50.078;19.936;2023-05-20T09:35:24;99869.63;;;16.87;72.58
78857;BME280;68207;50.078;19.936;2023-05-20T09:37:55;99866.50;;;16.91;72.57
78857;BME280;68207;50.078;19.936;2023-05-20T09:40:25;99865.26;;;16.99;72.47
78857;BME280;68207;50.078;19.936;2023-05-20T09:43:05;99863.39;;;17.10;72.34
78857;BME280;68207;50.078;19.936;2023-05-20T09:45:36;99867.02;;;17.20;72.01
78857;BME280;68207;50.078;19.936;2023-05-20T09:48:03;99856.32;;;17.25;71.97
78857;BME280;68207;50.078;19.936;2023-05-20T09:50:30;99856.27;;;17.31;71.90
78857;BME280;68207;50.078;19.936;2023-05-20T09:53:01;99854.10;;;17.37;71.81
78857;BME280;68207;50.078;19.936;2023-05-20T09:55:28;99854.88;;;17.45;71.87
78857;BME280;68207;50.078;19.936;2023-05-20T09:57:55;99854.38;;;17.51;71.44
78857;BME280;68207;50.078;19.936;2023-05-20T10:00:20;99855.56;;;17.58;71.13
78857;BME280;68207;50.078;19.936;2023-05-20T10:02:50;99850.89;;;17.61;70.68
78857;BME280;68207;50.078;19.936;2023-05-20T10:05:31;99852.09;;;17.65;70.63
78857;BME280;68207;50.078;19.936;2023-05-20T10:11:17;99851.57;;;17.86;70.51
78857;BME280;68207;50.078;19.936;2023-05-20T10:14:20;99849.35;;;18.00;70.52
78857;BME280;68207;50.078;19.936;2023-05-20T10:16:49;99847.90;;;18.14;69.98
78857;BME280;68207;50.078;19.936;2023-05-20T10:19:30;99845.42;;;18.24;69.78
78857;BME280;68207;50.078;19.936;2023-05-20T10:22:01;99843.36;;;18.34;69.64
78857;BME280;68207;50.078;19.936;2023-05-20T10:26:56;99848.13;;;18.49;69.20
78857;BME280;68207;50.078;19.936;2023-05-20T10:29:22;99848.42;;;18.55;68.86
78857;BME280;68207;50.078;19.936;2023-05-20T10:31:49;99849.80;;;18.60;68.66
78857;BME280;68207;50.078;19.936;2023-05-20T10:34:16;99845.81;;;18.63;68.32
78857;BME280;68207;50.078;19.936;2023-05-20T10:39:24;99849.89;;;18.76;67.75
78857;BME280;68207;50.078;19.936;2023-05-20T10:41:51;99849.45;;;18.84;67.65
78857;BME280;68207;50.078;19.936;2023-05-20T10:44:16;99852.41;;;18.93;67.61
78857;BME280;68207;50.078;19.936;2023-05-20T10:46:41;99845.11;;;19.00;67.43
78857;BME280;68207;50.078;19.936;2023-05-20T10:49:17;99847.18;;;19.07;67.22
78857;BME280;68207;50.078;19.936;2023-05-20T10:51:44;99842.71;;;19.16;66.94
78857;BME280;68207;50.078;19.936;2023-05-20T10:54:10;99841.91;;;19.20;66.52
78857;BME280;68207;50.078;19.936;2023-05-20T10:56:36;99838.42;;;19.28;66.60
78857;BME280;68207;50.078;19.936;2023-05-20T10:59:02;99838.56;;;19.42;66.57
78857;BME280;68207;50.078;19.936;2023-05-20T11:01:28;99834.80;;;19.56;66.19
78857;BME280;68207;50.078;19.936;2023-05-20T11:03:54;99824.54;;;19.68;65.55
78857;BME280;68207;50.078;19.936;2023-05-20T11:06:25;99821.96;;;19.88;65.08
78857;BME280;68207;50.078;19.936;2023-05-20T11:08:52;99816.59;;;20.12;64.66
78857;BME280;68207;50.078;19.936;2023-05-20T11:11:17;99821.08;;;20.37;64.29
78857;BME280;68207;50.078;19.936;2023-05-20T11:13:43;99814.18;;;20.58;63.90
78857;BME280;68207;50.078;19.936;2023-05-20T11:16:08;99813.04;;;20.77;63.25
78857;BME280;68207;50.078;19.936;2023-05-20T11:18:33;99806.29;;;20.93;62.88
78857;BME280;68207;50.078;19.936;2023-05-20T11:20:59;99805.02;;;21.03;62.36
78857;BME280;68207;50.078;19.936;2023-05-20T11:23:26;99797.40;;;21.15;61.74
78857;BME280;68207;50.078;19.936;2023-05-20T11:25:53;99791.66;;;21.31;61.48
78857;BME280;68207;50.078;19.936;2023-05-20T11:28:19;99785.20;;;21.52;60.75
78857;BME280;68207;50.078;19.936;2023-05-20T11:30:49;99778.23;;;21.72;60.09
78857;BME280;68207;50.078;19.936;2023-05-20T11:33:15;99775.08;;;21.96;59.69
78857;BME280;68207;50.078;19.936;2023-05-20T11:35:50;99775.25;;;22.10;59.50
78857;BME280;68207;50.078;19.936;2023-05-20T11:38:17;99776.73;;;22.18;59.44
78857;BME280;68207;50.078;19.936;2023-05-20T11:40:52;99777.83;;;22.36;59.41
78857;BME280;68207;50.078;19.936;2023-05-20T11:43:19;99774.23;;;22.61;59.16
78857;BME280;68207;50.078;19.936;2023-05-20T11:45:46;99770.83;;;22.74;58.67
78857;BME280;68207;50.078;19.936;2023-05-20T11:48:12;99769.56;;;22.89;58.26
78857;BME280;68207;50.078;19.936;2023-05-20T11:50:44;99764.40;;;23.02;57.56
78857;BME280;68207;50.078;19.936;2023-05-20T11:53:13;99764.52;;;23.20;57.31
78857;BME280;68207;50.078;19.936;2023-05-20T11:55:48;99767.09;;;23.37;56.45
78857;BME280;68207;50.078;19.936;2023-05-20T11:58:18;99766.09;;;23.53;56.05
78857;BME280;68207;50.078;19.936;2023-05-20T12:00:44;99756.64;;;23.72;55.65
78857;BME280;68207;50.078;19.936;2023-05-20T12:03:09;99760.70;;;23.91;55.10
78857;BME280;68207;50.078;19.936;2023-05-20T12:05:35;99759.63;;;24.04;54.77
78857;BME280;68207;50.078;19.936;2023-05-20T12:08:01;99754.59;;;24.13;54.32
78857;BME280;68207;50.078;19.936;2023-05-20T12:10:26;99752.23;;;24.23;54.47
78857;BME280;68207;50.078;19.936;2023-05-20T12:12:51;99745.47;;;24.38;54.76
78857;BME280;68207;50.078;19.936;2023-05-20T12:15:17;99745.33;;;24.60;54.44
78857;BME280;68207;50.078;19.936;2023-05-20T12:17:49;99747.74;;;24.73;53.77
78857;BME280;68207;50.078;19.936;2023-05-20T12:20:16;99741.72;;;24.83;52.86
78857;BME280;68207;50.078;19.936;2023-05-20T12:22:45;99734.94;;;24.91;52.97
78857;BME280;68207;50.078;19.936;2023-05-20T12:25:12;99729.45;;;25.01;52.96
78857;BME280;68207;50.078;19.936;2023-05-20T12:27:38;99721.67;;;25.10;52.74
78857;BME280;68207;50.078;19.936;2023-05-20T12:30:06;99717.50;;;25.24;52.78
78857;BME280;68207;50.078;19.936;2023-05-20T12:32:31;99717.21;;;25.38;51.97
78857;BME280;68207;50.078;19.936;2023-05-20T12:34:57;99712.50;;;25.50;51.93
78857;BME280;68207;50.078;19.936;2023-05-20T12:37:22;99712.41;;;25.65;51.64
78857;BME280;68207;50.078;19.936;2023-05-20T12:39:47;99704.34;;;25.75;50.79
78857;BME280;68207;50.078;19.936;2023-05-20T12:42:12;99705.67;;;25.83;50.67
78857;BME280;68207;50.078;19.936;2023-05-20T12:44:38;99700.41;;;25.91;50.59
78857;BME280;68207;50.078;19.936;2023-05-20T12:47:03;99700.33;;;25.98;50.59
78857;BME280;68207;50.078;19.936;2023-05-20T12:49:28;99700.50;;;26.05;50.57
78857;BME280;68207;50.078;19.936;2023-05-20T12:51:54;99700.75;;;26.12;49.92
78857;BME280;68207;50.078;19.936;2023-05-20T12:54:19;99694.18;;;26.17;49.63